createdAt,value
2022-08-12T00:00:52.569Z,12.60
2022-08-12T00:03:38.217Z,12.60
2022-08-12T00:06:24.940Z,12.50
2022-08-12T00:09:10.636Z,12.60
2022-08-12T00:11:56.270Z,12.60
2022-08-12T00:14:42.486Z,12.60
2022-08-12T00:17:27.956Z,12.50
2022-08-12T00:20:13.553Z,12.50
2022-08-12T00:23:00.145Z,12.50
2022-08-12T00:26:22.649Z,12.50
2022-08-12T00:29:13.472Z,12.50
2022-08-12T00:32:00.309Z,12.50
2022-08-12T00:34:49.075Z,12.40
2022-08-12T00:37:35.741Z,12.50
2022-08-12T00:40:23.789Z,12.50
2022-08-12T00:42:51.558Z,12.50
2022-08-12T00:45:19.628Z,12.50
2022-08-12T00:47:47.279Z,12.40
2022-08-12T00:50:20.027Z,12.50
2022-08-12T00:52:50.121Z,12.50
2022-08-12T00:55:18.674Z,12.50
2022-08-12T00:57:48.637Z,12.50
2022-08-12T01:00:21.825Z,12.40
2022-08-12T01:02:52.194Z,12.40
2022-08-12T01:05:40.449Z,12.40
2022-08-12T01:08:26.669Z,12.40
2022-08-12T01:11:14.014Z,12.40
2022-08-12T01:13:47.351Z,12.40
2022-08-12T01:16:17.439Z,12.40
2022-08-12T01:18:45.541Z,12.50
2022-08-12T01:21:27.563Z,12.40
2022-08-12T01:24:34.089Z,12.40
2022-08-12T01:27:03.427Z,12.40
2022-08-12T01:29:42.001Z,12.40
2022-08-12T01:32:12.174Z,12.40
2022-08-12T01:34:45.294Z,12.50
2022-08-12T01:37:13.678Z,12.40
2022-08-12T01:40:33.510Z,12.40
2022-08-12T01:42:41.977Z,12.30
2022-08-12T01:45:10.074Z,12.20
2022-08-12T01:47:54.806Z,12.20
2022-08-12T01:50:40.205Z,12.30
2022-08-12T01:53:13.099Z,12.30
2022-08-12T01:55:48.438Z,12.20
2022-08-12T01:58:55.296Z,12.30
2022-08-12T02:01:27.893Z,12.30
2022-08-12T02:04:34.252Z,12.40
2022-08-12T02:07:38.790Z,12.30
2022-08-12T02:10:51.285Z,12.30
2022-08-12T02:13:56.075Z,12.30
2022-08-12T02:16:51.045Z,12.30
2022-08-12T02:19:27.721Z,12.30
2022-08-12T02:22:13.137Z,12.20
2022-08-12T02:24:42.704Z,12.20
2022-08-12T02:27:12.838Z,12.20
2022-08-12T02:29:41.138Z,12.20
2022-08-12T02:32:09.376Z,12.20
2022-08-12T02:34:37.866Z,12.20
2022-08-12T02:37:05.325Z,12.30
2022-08-12T02:39:36.026Z,12.20
2022-08-12T02:42:04.755Z,12.30
2022-08-12T02:44:40.253Z,12.30
2022-08-12T02:47:59.769Z,12.20
2022-08-12T02:49:58.517Z,12.30
2022-08-12T02:52:27.466Z,12.30
2022-08-12T02:55:01.552Z,12.30
2022-08-12T02:57:31.800Z,12.30
2022-08-12T03:00:04.090Z,12.20
2022-08-12T03:02:33.670Z,12.30
2022-08-12T03:05:03.743Z,12.30
2022-08-12T03:07:59.788Z,12.30
2022-08-12T03:10:36.487Z,12.30
2022-08-12T03:13:07.343Z,12.30
2022-08-12T03:15:35.753Z,12.30
2022-08-12T03:18:28.680Z,12.30
2022-08-12T03:20:57.343Z,12.30
2022-08-12T03:23:30.401Z,12.30
2022-08-12T03:26:01.835Z,12.30
2022-08-12T03:28:49.662Z,12.30
2022-08-12T03:31:19.678Z,12.30
2022-08-12T03:34:02.091Z,12.30
2022-08-12T03:36:32.104Z,12.30
2022-08-12T03:39:16.327Z,12.40
2022-08-12T03:41:58.331Z,12.40
2022-08-12T03:44:50.201Z,12.50
2022-08-12T03:47:45.736Z,12.50
2022-08-12T03:50:31.361Z,12.50
2022-08-12T03:53:16.918Z,12.60
2022-08-12T03:56:02.690Z,12.60
2022-08-12T03:58:48.798Z,12.70
2022-08-12T04:01:15.868Z,12.90
2022-08-12T04:03:55.313Z,13.30
2022-08-12T04:06:34.791Z,13.40
2022-08-12T04:09:14.686Z,13.50
2022-08-12T04:12:04.263Z,13.60
2022-08-12T04:14:33.127Z,13.60
2022-08-12T04:17:01.274Z,13.70
2022-08-12T04:19:29.413Z,13.70
2022-08-12T04:22:01.804Z,13.80
2022-08-12T04:24:32.195Z,13.80
2022-08-12T04:26:59.281Z,13.90
2022-08-12T04:30:29.149Z,14.00
2022-08-12T04:32:14.446Z,14.00
2022-08-12T04:34:42.489Z,14.10
2022-08-12T04:37:09.311Z,14.10
2022-08-12T04:39:39.486Z,14.20
2022-08-12T04:42:06.782Z,14.30
2022-08-12T04:44:33.689Z,14.40
2022-08-12T04:47:00.749Z,14.60
2022-08-12T04:49:28.458Z,14.60
2022-08-12T04:51:59.186Z,14.80
2022-08-12T04:54:27.678Z,14.80
2022-08-12T04:57:04.283Z,15.00
2022-08-12T04:59:46.598Z,15.30
2022-08-12T05:02:21.613Z,15.70
2022-08-12T05:04:51.992Z,16.60
2022-08-12T05:07:20.563Z,17.50
2022-08-12T05:10:00.854Z,18.00
2022-08-12T05:12:36.776Z,18.00
2022-08-12T05:15:19.894Z,17.90
2022-08-12T05:17:56.127Z,17.80
2022-08-12T05:20:23.460Z,17.70
2022-08-12T05:22:53.038Z,17.70
2022-08-12T05:25:24.599Z,17.70
2022-08-12T05:27:58.556Z,17.70
2022-08-12T05:30:31.035Z,17.90
2022-08-12T05:33:00.031Z,17.90
2022-08-12T05:35:27.946Z,18.00
2022-08-12T05:38:15.034Z,18.20
2022-08-12T05:40:42.231Z,18.30
2022-08-12T05:43:09.332Z,18.40
2022-08-12T05:45:39.255Z,18.50
2022-08-12T05:48:08.599Z,18.70
2022-08-12T05:50:35.879Z,18.90
2022-08-12T05:53:03.069Z,19.00
2022-08-12T05:55:31.845Z,19.10
2022-08-12T05:57:59.044Z,19.30
2022-08-12T06:00:26.659Z,19.40
2022-08-12T06:02:57.148Z,19.50
2022-08-12T06:05:24.178Z,19.70
2022-08-12T06:08:01.486Z,19.90
2022-08-12T06:14:16.897Z,20.20
2022-08-12T06:16:46.517Z,20.40
2022-08-12T06:19:13.371Z,20.50
2022-08-12T06:21:40.301Z,20.60
2022-08-12T06:24:08.606Z,20.70
2022-08-12T06:26:35.501Z,20.70
2022-08-12T06:29:02.510Z,20.90
2022-08-12T06:31:29.469Z,21.00
2022-08-12T06:35:22.531Z,21.10
2022-08-12T06:40:49.171Z,21.40
2022-08-12T06:43:16.136Z,21.50
2022-08-12T06:45:49.630Z,21.70
2022-08-12T06:48:17.483Z,21.80
2022-08-12T06:50:44.580Z,22.00
2022-08-12T06:53:11.845Z,22.20
2022-08-12T06:55:39.528Z,22.40
2022-08-12T06:58:25.480Z,22.50
2022-08-12T07:00:52.573Z,22.50
2022-08-12T07:03:27.901Z,22.50
2022-08-12T07:06:00.792Z,22.70
2022-08-12T07:08:32.872Z,22.80
2022-08-12T07:11:02.146Z,22.90
2022-08-12T07:14:12.366Z,22.90
2022-08-12T07:16:49.777Z,23.10
2022-08-12T07:19:19.098Z,23.10
2022-08-12T07:22:00.141Z,23.20
2022-08-12T07:24:30.033Z,23.00
2022-08-12T07:26:57.175Z,23.00
2022-08-12T07:29:59.438Z,23.20
2022-08-12T07:32:13.069Z,23.30
2022-08-12T07:34:42.401Z,23.30
2022-08-12T07:37:09.790Z,23.50
2022-08-12T07:39:36.705Z,23.60
2022-08-12T07:42:17.326Z,23.70
2022-08-12T07:44:44.287Z,23.80
2022-08-12T07:47:12.614Z,23.90
2022-08-12T07:50:03.150Z,24.10
2022-08-12T07:52:26.533Z,24.10
2022-08-12T07:54:53.608Z,24.30
2022-08-12T07:57:20.757Z,24.30
2022-08-12T07:59:48.344Z,24.50
2022-08-12T08:02:19.768Z,24.50
2022-08-12T08:05:00.775Z,24.50
2022-08-12T08:07:30.756Z,24.40
2022-08-12T08:10:00.065Z,24.50
2022-08-12T08:12:47.216Z,24.60
2022-08-12T08:15:15.841Z,24.60
2022-08-12T08:17:59.858Z,24.60
2022-08-12T08:20:28.805Z,24.60
2022-08-12T08:23:00.880Z,24.60
2022-08-12T08:25:36.235Z,24.70
2022-08-12T08:31:50.589Z,24.70
2022-08-12T08:34:47.570Z,24.80
2022-08-12T08:37:10.824Z,24.90
2022-08-12T08:39:42.741Z,24.90
2022-08-12T08:42:28.450Z,24.90
2022-08-12T08:44:58.409Z,25.00
2022-08-12T08:47:25.913Z,25.10
2022-08-12T08:49:52.995Z,25.20
2022-08-12T08:52:37.084Z,24.90
2022-08-12T08:55:07.587Z,25.00
2022-08-12T08:57:43.395Z,25.00
2022-08-12T09:00:20.061Z,25.00
2022-08-12T09:02:58.494Z,25.20
2022-08-12T09:05:27.877Z,25.40
2022-08-12T09:08:09.077Z,25.40
2022-08-12T09:10:44.982Z,25.30
2022-08-12T09:14:11.553Z,25.20
2022-08-12T09:16:20.325Z,25.10
2022-08-12T09:18:52.512Z,25.30
2022-08-12T09:21:23.230Z,25.30
2022-08-12T09:30:12.514Z,25.00
2022-08-12T09:32:56.321Z,25.10
2022-08-12T09:35:01.267Z,25.10
2022-08-12T09:37:55.351Z,25.20
2022-08-12T09:41:02.023Z,25.10
2022-08-12T09:43:24.749Z,24.90
2022-08-12T09:46:12.100Z,24.90
2022-08-12T09:48:44.465Z,24.70
2022-08-12T09:51:22.052Z,24.90
2022-08-12T09:54:08.732Z,24.90
2022-08-12T09:57:03.245Z,24.90
2022-08-12T10:00:14.634Z,24.80
2022-08-12T10:02:42.294Z,25.00
2022-08-12T10:05:04.467Z,25.00
2022-08-12T10:07:39.694Z,25.00
2022-08-12T10:10:23.089Z,24.90
2022-08-12T10:13:19.436Z,24.80
2022-08-12T10:16:05.282Z,24.90
2022-08-12T10:18:53.920Z,24.90
2022-08-12T10:21:23.994Z,25.10
2022-08-12T10:24:12.154Z,25.20
2022-08-12T10:26:59.546Z,25.20
2022-08-12T10:30:37.670Z,25.00
2022-08-12T10:32:45.239Z,24.80
2022-08-12T10:35:21.038Z,24.70
2022-08-12T10:38:33.550Z,24.90
2022-08-12T10:40:55.436Z,25.00
2022-08-12T10:43:55.841Z,25.20
2022-08-12T10:46:31.281Z,25.30
2022-08-12T10:49:06.244Z,25.30
2022-08-12T10:52:32.521Z,25.30
2022-08-12T10:54:40.591Z,25.40
2022-08-12T10:57:09.496Z,25.50
2022-08-12T11:00:30.265Z,25.50
2022-08-12T11:04:27.481Z,25.40
2022-08-12T11:07:05.910Z,25.40
2022-08-12T11:08:33.577Z,25.30
2022-08-12T11:10:54.844Z,25.40
2022-08-12T11:17:44.010Z,25.50
2022-08-12T11:20:01.977Z,25.50
2022-08-12T11:22:29.911Z,25.30
2022-08-12T11:24:59.455Z,25.20
2022-08-12T11:27:26.377Z,25.40
2022-08-12T11:30:02.302Z,25.30
2022-08-12T11:32:38.976Z,25.20
2022-08-12T11:35:07.047Z,25.50
2022-08-12T11:37:36.425Z,25.50
2022-08-12T11:40:22.914Z,25.50
2022-08-12T11:42:50.452Z,25.60
2022-08-12T11:45:19.701Z,25.50
2022-08-12T11:47:46.632Z,25.50
2022-08-12T11:50:19.732Z,25.60
2022-08-12T11:52:55.679Z,25.70
2022-08-12T11:55:24.440Z,25.80
2022-08-12T11:58:51.200Z,25.80
2022-08-12T12:03:44.194Z,25.90
2022-08-12T12:06:16.897Z,25.80
2022-08-12T12:08:50.584Z,25.60
2022-08-12T12:11:19.159Z,25.60
2022-08-12T12:14:06.581Z,25.50
2022-08-12T12:16:33.680Z,25.50
2022-08-12T12:19:10.256Z,25.50
2022-08-12T12:21:47.393Z,25.30
2022-08-12T12:24:22.209Z,25.40
2022-08-12T12:27:00.295Z,25.50
2022-08-12T12:30:13.772Z,25.40
2022-08-12T12:32:17.046Z,25.50
2022-08-12T12:35:44.517Z,25.60
2022-08-12T12:38:03.319Z,25.60
2022-08-12T12:40:19.916Z,25.60
2022-08-12T12:43:00.469Z,25.50
2022-08-12T12:45:33.617Z,25.50
2022-08-12T12:48:09.670Z,25.60
2022-08-12T12:50:45.588Z,25.40
2022-08-12T12:54:06.709Z,25.30
2022-08-12T12:56:33.894Z,25.40
2022-08-12T12:59:03.905Z,25.50
2022-08-12T13:01:36.334Z,25.50
2022-08-12T13:04:12.529Z,25.40
2022-08-12T13:06:41.407Z,25.30
2022-08-12T13:09:13.161Z,25.20
2022-08-12T13:11:41.868Z,25.40
2022-08-12T13:14:29.621Z,25.30
2022-08-12T13:17:02.754Z,25.60
2022-08-12T13:19:43.280Z,25.70
2022-08-12T13:22:20.363Z,25.60
2022-08-12T13:24:55.947Z,25.50
2022-08-12T13:27:35.751Z,25.60
2022-08-12T13:30:06.944Z,25.70
2022-08-12T13:32:38.527Z,25.60
2022-08-12T13:35:32.878Z,25.80
2022-08-12T13:37:55.823Z,25.70
2022-08-12T13:40:33.637Z,25.70
2022-08-12T13:43:02.119Z,25.60
2022-08-12T13:45:31.853Z,25.50
2022-08-12T13:48:04.293Z,25.40
2022-08-12T13:50:43.555Z,25.30
2022-08-12T13:53:24.104Z,25.30
2022-08-12T13:56:01.644Z,25.40
2022-08-12T13:58:30.956Z,25.20
2022-08-12T14:01:05.496Z,25.30
2022-08-12T14:03:51.556Z,25.40
2022-08-12T14:06:20.079Z,25.50
2022-08-12T14:08:49.745Z,25.80
2022-08-12T14:11:18.462Z,26.50
2022-08-12T14:14:03.555Z,27.20
2022-08-12T14:16:46.772Z,27.60
2022-08-12T14:19:24.360Z,27.80
2022-08-12T14:22:01.552Z,28.10
2022-08-12T14:24:35.830Z,28.50
2022-08-12T14:27:09.134Z,28.00
2022-08-12T14:30:05.391Z,28.30
2022-08-12T14:32:28.671Z,28.60
2022-08-12T14:34:56.765Z,28.70
2022-08-12T14:37:54.882Z,28.60
2022-08-12T14:40:18.585Z,28.90
2022-08-12T14:42:54.715Z,28.70
2022-08-12T14:45:22.980Z,28.50
2022-08-12T14:47:58.329Z,28.70
2022-08-12T14:50:37.714Z,29.00
2022-08-12T14:55:24.741Z,28.80
2022-08-12T14:59:20.445Z,29.10
2022-08-12T15:01:52.137Z,29.20
2022-08-12T15:04:26.099Z,28.20
2022-08-12T15:06:55.133Z,28.30
2022-08-12T15:09:29.272Z,28.60
2022-08-12T15:12:04.069Z,28.40
2022-08-12T15:14:32.030Z,28.20
2022-08-12T15:17:00.117Z,28.00
2022-08-12T15:20:17.997Z,27.90
2022-08-12T15:22:39.317Z,28.20
2022-08-12T15:25:07.305Z,28.00
2022-08-12T15:28:04.090Z,28.20
2022-08-12T15:30:31.289Z,28.40
2022-08-12T15:32:58.972Z,28.30
2022-08-12T15:35:31.138Z,27.80
2022-08-12T15:38:11.430Z,27.80
2022-08-12T15:40:48.467Z,27.80
2022-08-12T15:43:51.485Z,28.10
2022-08-12T15:46:06.421Z,28.00
2022-08-12T15:48:33.942Z,28.20
2022-08-12T15:51:02.973Z,27.60
2022-08-12T15:53:51.249Z,27.60
2022-08-12T15:56:29.405Z,27.90
2022-08-12T15:59:00.615Z,27.60
2022-08-12T16:01:35.181Z,27.90
2022-08-12T16:04:05.212Z,27.90
2022-08-12T16:09:56.157Z,27.80
2022-08-12T16:12:12.311Z,27.90
2022-08-12T16:14:41.764Z,27.70
2022-08-12T16:17:15.675Z,27.50
2022-08-12T16:20:04.924Z,27.10
2022-08-12T16:22:29.720Z,26.50
2022-08-12T16:24:57.314Z,26.00
2022-08-12T16:27:25.682Z,25.60
2022-08-12T16:29:57.681Z,25.00
2022-08-12T16:32:31.599Z,24.80
2022-08-12T16:35:00.066Z,24.70
2022-08-12T16:38:04.702Z,24.40
2022-08-12T16:40:15.698Z,24.30
2022-08-12T16:42:53.996Z,24.10
2022-08-12T16:45:32.425Z,24.00
2022-08-12T16:48:34.242Z,23.70
2022-08-12T16:51:09.870Z,23.50
2022-08-12T16:53:43.871Z,23.50
2022-08-12T16:56:14.472Z,23.40
2022-08-12T16:58:43.297Z,23.30
2022-08-12T17:01:14.696Z,23.20
2022-08-12T17:03:47.149Z,23.20
2022-08-12T17:06:22.446Z,23.10
2022-08-12T17:09:08.446Z,23.00
2022-08-12T17:11:38.856Z,22.90
2022-08-12T17:14:06.949Z,22.70
2022-08-12T17:16:37.650Z,22.60
2022-08-12T17:19:09.240Z,22.50
2022-08-12T17:21:40.916Z,22.50
2022-08-12T17:24:21.582Z,22.50
2022-08-12T17:26:51.544Z,22.40
2022-08-12T17:29:24.188Z,22.30
2022-08-12T17:32:10.319Z,22.20
2022-08-12T17:34:55.833Z,22.20
2022-08-12T17:37:23.142Z,22.10
2022-08-12T17:40:12.428Z,22.10
2022-08-12T17:42:47.605Z,22.00
2022-08-12T17:45:19.473Z,22.00
2022-08-12T17:48:00.127Z,21.90
2022-08-12T17:50:32.059Z,21.90
2022-08-12T17:53:03.054Z,21.80
2022-08-12T17:55:44.112Z,21.80
2022-08-12T17:58:21.631Z,21.70
2022-08-12T18:01:03.749Z,21.60
2022-08-12T18:03:58.223Z,21.60
2022-08-12T18:06:18.276Z,21.60
2022-08-12T18:08:54.790Z,21.50
2022-08-12T18:12:04.216Z,21.40
2022-08-12T18:14:30.110Z,21.30
2022-08-12T18:17:00.596Z,21.20
2022-08-12T18:20:03.915Z,21.10
2022-08-12T18:22:22.129Z,21.00
2022-08-12T18:25:00.770Z,21.00
2022-08-12T18:27:44.473Z,20.90
2022-08-12T18:30:20.529Z,20.70
2022-08-12T18:33:03.175Z,20.70
2022-08-12T18:35:46.929Z,20.50
2022-08-12T18:38:20.053Z,20.50
2022-08-12T18:41:09.478Z,20.40
2022-08-12T18:43:59.402Z,20.30
2022-08-12T18:46:46.833Z,20.20
2022-08-12T18:49:39.327Z,20.10
2022-08-12T18:52:08.464Z,20.00
2022-08-12T18:54:49.191Z,19.90
2022-08-12T18:58:06.366Z,19.90
2022-08-12T19:00:23.440Z,19.80
2022-08-12T19:02:55.821Z,19.80
2022-08-12T19:05:53.853Z,19.80
2022-08-12T19:08:13.038Z,19.70
2022-08-12T19:10:42.868Z,19.70
2022-08-12T19:13:36.355Z,19.70
2022-08-12T19:16:10.798Z,19.70
2022-08-12T19:18:41.052Z,19.70
2022-08-12T19:21:16.704Z,19.70
2022-08-12T19:24:04.676Z,19.60
2022-08-12T19:26:33.533Z,19.50
2022-08-12T19:29:03.151Z,19.50
2022-08-12T19:31:56.691Z,19.40
2022-08-12T19:35:24.169Z,19.40
2022-08-12T19:37:27.538Z,19.20
2022-08-12T19:40:09.769Z,19.20
2022-08-12T19:42:53.360Z,19.20
2022-08-12T19:45:22.225Z,19.20
2022-08-12T19:47:49.487Z,19.20
2022-08-12T19:50:19.664Z,19.20
2022-08-12T19:52:47.875Z,19.10
2022-08-12T19:55:21.271Z,19.20
2022-08-12T19:58:01.138Z,19.00
2022-08-12T20:00:29.125Z,19.00
2022-08-12T20:02:59.459Z,18.80
2022-08-12T20:06:05.171Z,18.80
2022-08-12T20:08:27.866Z,18.80
2022-08-12T20:12:12.405Z,18.80
2022-08-12T20:17:50.751Z,18.70
2022-08-12T20:24:08.174Z,18.60
2022-08-12T20:26:41.258Z,18.60
2022-08-12T20:29:09.438Z,18.60
2022-08-12T20:31:39.897Z,18.60
2022-08-12T20:34:06.944Z,18.60
2022-08-12T20:36:41.467Z,18.60
2022-08-12T20:39:37.374Z,18.60
2022-08-12T20:42:07.070Z,18.60
2022-08-12T20:44:39.884Z,18.60
2022-08-12T20:50:55.165Z,18.50
2022-08-12T20:53:33.056Z,18.40
2022-08-12T20:56:31.099Z,18.40
2022-08-12T20:59:00.093Z,18.50
2022-08-12T21:01:28.939Z,18.50
2022-08-12T21:04:23.586Z,18.40
2022-08-12T21:06:57.515Z,18.30
2022-08-12T21:09:25.642Z,18.30
2022-08-12T21:11:57.191Z,18.20
2022-08-12T21:14:39.852Z,18.10
2022-08-12T21:17:15.867Z,18.10
2022-08-12T21:19:52.067Z,18.10
2022-08-12T21:22:24.734Z,18.00
2022-08-12T21:24:53.077Z,18.00
2022-08-12T21:27:20.175Z,17.90
2022-08-12T21:29:55.086Z,18.10
2022-08-12T21:32:36.574Z,18.10
2022-08-12T21:35:07.583Z,18.00
2022-08-12T21:37:37.432Z,18.20
2022-08-12T21:40:13.308Z,18.30
2022-08-12T21:42:42.265Z,18.40
2022-08-12T21:45:48.035Z,18.30
2022-08-12T21:47:59.795Z,18.30
2022-08-12T21:50:33.489Z,18.40
2022-08-12T21:53:02.408Z,18.50
2022-08-12T21:55:37.588Z,18.40
2022-08-12T21:58:16.767Z,18.40
2022-08-12T22:00:43.919Z,18.30
2022-08-12T22:04:03.821Z,18.20
2022-08-12T22:06:25.968Z,18.20
2022-08-12T22:09:04.281Z,18.20
2022-08-12T22:11:41.631Z,18.10
2022-08-12T22:14:18.041Z,18.10
2022-08-12T22:16:50.516Z,18.10
2022-08-12T22:19:20.854Z,17.90
2022-08-12T22:21:53.544Z,17.90
2022-08-12T22:24:25.691Z,17.90
2022-08-12T22:26:54.773Z,17.90
2022-08-12T22:29:40.819Z,17.90
2022-08-12T22:32:11.961Z,17.80
2022-08-12T22:34:39.332Z,17.60
2022-08-12T22:37:11.103Z,17.50
2022-08-12T22:39:43.859Z,17.50
2022-08-12T22:42:30.689Z,17.40
2022-08-12T22:45:16.936Z,17.30
2022-08-12T22:47:55.023Z,17.20
2022-08-12T22:50:29.476Z,17.20
2022-08-12T22:53:16.421Z,17.20
2022-08-12T22:56:05.887Z,17.10
2022-08-12T22:58:40.153Z,17.10
2022-08-12T23:01:09.654Z,17.00
2022-08-12T23:03:47.695Z,17.10
2022-08-12T23:06:23.926Z,17.00
2022-08-12T23:08:54.782Z,17.00
2022-08-12T23:11:23.972Z,16.90
2022-08-12T23:13:56.414Z,16.90
2022-08-12T23:16:30.909Z,16.80
2022-08-12T23:19:18.024Z,16.80
2022-08-12T23:22:06.714Z,16.80
2022-08-12T23:24:56.386Z,16.70
2022-08-12T23:27:50.702Z,16.60
2022-08-12T23:30:24.742Z,16.60
2022-08-12T23:32:54.753Z,16.50
2022-08-12T23:35:45.726Z,16.60
2022-08-12T23:38:30.333Z,16.50
2022-08-12T23:40:58.263Z,16.50
2022-08-12T23:43:25.683Z,16.50
2022-08-12T23:46:00.880Z,16.50
2022-08-12T23:48:31.369Z,16.40
2022-08-12T23:50:59.640Z,16.40
2022-08-12T23:53:32.354Z,16.40
2022-08-12T23:55:59.685Z,16.40
2022-08-12T23:58:28.334Z,16.30
